Details From EPWA - Warsaw Okecie - Frederic Chopin
To GCGM - La Gomera
Flight Number -
Tags Generated
Created
Modified
Stats Distance 2,233 nm / 4,135 km
Max Altitude 0 ft / 0 m
Waypoints 8
Social Downloads 0
Likes 0
Share VATSIM

Download

Looking for another format? Having issues loading an existing format? Contact us
Advertisement - Login to hide

Notes

Generated

Route

EPWA KOPIT WLD GVA02 MEDAP SOLAX LGM GCGM

ID Type Via Altitude Latitude Longitude Leg Dist Tot Dist Heading (true) Name
O EPWA APT - 0 ft / 0 m 52.17148˚ 20.94671˚ - 0 nm - -
KOPIT FIX - 0 ft / 0 m 50.18821˚ 15.15795˚ 248 nm 248 nm 244° / 239° -
WLD VOR - 0 ft / 0 m 48.57942˚ 11.12939˚ 184 nm 432 nm 240° / 237° WALDA VOR-DME
GVA02 FIX - 0 ft / 0 m 46.22955˚ 6.16502˚ 246 nm 679 nm 237° / 233° -
MEDAP FIX - 0 ft / 0 m 43.92167˚ 2.02167˚ 223 nm 902 nm 233° / 230° -
SOLAX FIX - 0 ft / 0 m 39.24255˚ -4.94918˚ 420 nm 1323 nm 230° / 226° -
LGM VOR - 0 ft / 0 m 28.02874˚ -17.21487˚ 909 nm 2232 nm 226° / 219° LA GOMERA VOR-DME
O GCGM APT - 0 ft / 0 m 28.02859˚ -17.22214˚ 0 nm 2232 nm 269° / 269° -

Altitude Profile

Advertisement - Login to hide

Weather


0- 5 10 15 20 25 30 35+ Temperature / ° C

Clouds and Precipitation
Forecast for 2018-05-27 00:00 UTC. Updated 36 minutes ago

Ground ~20,000 ft ~40,000 ft Winds

EPWA

Details ICAO EPWA (WAW)
Name WARSZAWA Okecie
Region Poland
Timezone Europe/Warsaw (UTC+2.0)
Stats Elevation 328 ft / 100 m (AMSL)
Location 52.165091° 20.966923°
Runways 2
Magnetic Variation 5.859° E

METAR

EPWA 262330Z 05005KT 9999 MIFG NSC 15/15 Q1023 TEMPO 3000 BR

Decode

TAF

TAF EPWA 262330Z 2700/2724 09005KT 5000 BR NSC TEMPO 2700/2707 3000 BR BKN007 PROB40 2702/2705 1000 BR BKN002 BECMG 2706/2708 CAVOK

Decode

Departure Runways

ID Width Length Bearing (true) Bearing (mag) Surface Threshold Offset Overrun Length
11 164 ft / 50 m 9,163 ft / 2,793 m 114.64° 108.78° Asphalt 0 ft / 0 m 476 ft / 145 m
15 197 ft / 60 m 12,112 ft / 3,692 m 151.85° 145.99° Asphalt 0 ft / 0 m 0 ft / 0 m
29 164 ft / 50 m 9,163 ft / 2,793 m 294.67° 288.81° Asphalt 1,608 ft / 490 m 0 ft / 0 m
33 197 ft / 60 m 12,112 ft / 3,692 m 331.87° 326.01° Asphalt 0 ft / 0 m 0 ft / 0 m

GCGM

Details ICAO GCGM (GMZ)
Name La Gomera
Region Canary Islands
Timezone Atlantic/Canary (UTC+1.0)
Stats Elevation 715 ft / 218 m (AMSL)
Location 28.029627° -17.214603°
Runways 1
Magnetic Variation 5.307° W

METAR

GCGM 262330Z AUTO VRB04KT 9999 FEW037/// 18/10 Q1021 RMK R09/35005KT 290V080 ARP/02006KT 350V060

Decode

TAF

TAF GCGM 262000Z 2621/2721 VRB05KT 9999 SCT045 TX23/2714Z TN17/2705Z

Decode

Destination Runways

ID Width Length Bearing (true) Bearing (mag) Surface Threshold Offset Overrun Length
09 98 ft / 30 m 4,914 ft / 1,498 m 81.17° 86.48° Asphalt 0 ft / 0 m 0 ft / 0 m
27 98 ft / 30 m 4,914 ft / 1,498 m 261.18° 266.49° Asphalt 0 ft / 0 m 0 ft / 0 m